默认 日期 大小 文件数 浏览量 最新下载 xml
de la磁力链接相关资源由用户搜索指令自动获取,结果来源于网络,本站不存储任何资料,亦不承担任何责任,请于24小时内删除,搜索到31985个磁力,显示前4000条数据,用时20ms。
    {"Leeme.txt": 118, "NEWPCT.url": 111, "NewPct1.url": 112, "divxatope1.url": 111, "TorrentLocura.url": 128, "TuMejorTorrent.url": 129, "Liga de la Justicia Guerra BD1080.www.newpct1.com.mkv": 5516024379}
创建时间: 2018-11-03 11:57:36 大小:5.14 GB 文件数量:7 热度:24 最近下载:2025-06-02 02:05:02
    {"viaje al centro de la tierra.avi": 733923328}
创建时间: 2018-11-03 11:57:53 大小:699.92 MB 文件数量:1 热度:14 最近下载:2025-08-04 03:16:05
    {"TorrentRapid.url": 127, "Importante leer !!!!!.txt": 301, "Las Flores De La Guerra [BluRayRIP][www.newpct1.com].avi": 2030466448}
创建时间: 2018-11-03 12:22:16 大小:1.89 GB 文件数量:3 热度:16 最近下载:2024-12-03 21:48:03
    {"f.jpg": 139873, "04 The Hum.mp3": 10648598, "02 Betrayed.mp3": 14641153, "09 Farewell.mp3": 15391390, "06 One of Us.mp3": 7754231, "08 Witching Hour.mp3": 14403961, "03 Ministry of God.mp3": 12018459, "07 The Die Is Cast.mp3": 12962002, "10 Martyrs of ...
创建时间: 2018-11-03 12:38:02 大小:120.17 MB 文件数量:11 热度:19 最近下载:2025-08-01 13:16:11
    ... , "Pubis angelical - Yendo de la cama al living.cue": 5615 ... , "Pubis angelical - Yendo de la cama al living.jpg": 131905 ... Garcia - Pubis angelical - Yendo de la cama al living.log": 11902 ... Garcia - Pubis angelical - Yendo de la cama al living.m3u": 1978}
创建时间: 2018-11-03 12:46:43 大小:353.28 MB 文件数量:27 热度:35 最近下载:2025-09-17 13:38:12
    ... Discos Fuentes Salsa All Stars- La Biblia De La Salsa Vol. 1.(www. ... mp3": 6888637, "05. Alfredo de la Fé - Spain Rumba-(LKT).mp3 ... Fuentes Salsa All Stars- La Biblia De La Salsa Vol. 2.(www ... ": 5090577, "05. Alfredo de la Fé - Historia de los Salseros-(LKT).mp3 ...
创建时间: 2018-11-03 14:28:45 大小:179.6 MB 文件数量:30 热度:17 最近下载:2025-01-28 01:52:04
    ... Meilleur Pour La Fin.mp3": 28381676}, "2009 - Gens De La Lune": {"Scans ... 05. Gens De La Lune.mp3": 12755212, "06. Les Vents De La.mp3": 13100028 ... 10772779, "04. Du Haut De Ma Citadelle.mp3": 16571975, " ... 01. Cueillir Les Secrets De L'Aube.mp3": 14598176, " ...
创建时间: 2018-11-03 14:36:24 大小:460.25 MB 文件数量:56 热度:24 最近下载:2025-06-04 13:16:02
    {"www.newpct.com.url": 111, "www.newpct1.com.url": 196, "Importante leer !!!!!.txt": 302, "Transformers4VerIMAXBDR1080.www.newpct1.com.mkv": 28024421990}
创建时间: 2018-11-03 15:16:03 大小:26.1 GB 文件数量:4 热度:21 最近下载:2025-09-20 09:45:07
    {"RARBG.txt": 30, "p.16.03.04.bdlcbobixm.xxx-failed.mp4": 1033969084, "p.16.03.04.bdlcbobixm.720.xxx-failed.nfo": 1730}
创建时间: 2018-11-03 15:21:36 大小:986.07 MB 文件数量:3 热度:37 最近下载:2025-08-04 03:30:07
    {"RARBG.txt": 30, "WildOnCam.18.10.11.Alex.De.La.Flor.Solo.XXX.SD.MP4-KLEENEX.mp4": 505136958}
创建时间: 2018-11-03 15:27:05 大小:481.74 MB 文件数量:2 热度:32 最近下载:2025-08-28 23:34:02
    {"Leeme.txt": 137, "torrentrapid.url": 123, "TorrentLocura.url": 128, "descargas2020.url": 124, "TuMejorTorrent.url": 129, "tvsinpagar.com.url": 125, "Liga de la Justicia 4K2160.www.descargas2020.com.mkv": 50506820842}
创建时间: 2018-11-03 15:27:26 大小:47.04 GB 文件数量:7 热度:41 最近下载:2025-10-08 02:40:02
    {"TorrentRapid.url": 117, "DESCARGAS2020.url": 124, "Tumejortorrent.url": 115, "El Banquero De La Resistencia [BluRay Rip][www.descargas2020.com].avi": 2450960384}
创建时间: 2018-11-03 15:30:29 大小:2.28 GB 文件数量:4 热度:12 最近下载:2023-04-07 18:00:17
    {"33 - Batallas siderales [DVDRIP][Spanish][newpct.com].avi": 235945984}
创建时间: 2018-11-03 15:31:36 大小:225.02 MB 文件数量:1 热度:16 最近下载:2025-08-07 22:06:01
    {"El Club de la Lucha.avi": 1469007872}
创建时间: 2018-11-03 15:32:56 大小:1.37 GB 文件数量:1 热度:15 最近下载:2025-07-02 22:42:01
    ... , "44_chromatic_WOOD ANTIQUE.nki": 2200, "45_chromatic_BASSE DE GUM.nki": 1787, "14_multi_ABSTRACT GUMMY ...
创建时间: 2018-11-03 16:04:27 大小:124.68 MB 文件数量:308 热度:26 最近下载:2025-06-13 13:55:01
    {"图片01.jpg": 125760, "图片02.jpg": 133047, "Marc Dorcel.Le Prix De La Luxure.avi": 1200171220, "[YzYs逸志影视]精品资源推荐.mht": 53468}
创建时间: 2018-11-03 16:27:26 大小:1.12 GB 文件数量:4 热度:4791 最近下载:2025-10-10 00:34:03
    {"GuardianesDeLaGalaxiaVol2.rar": 2130696874}
创建时间: 2018-11-03 17:04:02 大小:1.98 GB 文件数量:1 热度:27 最近下载:2025-09-17 09:15:05
    {"Sons of Anarchy (Hijos de la Anarquia) - Temp.4 [HDTV][Cap.407][Español Castellano][www.newpct.com].avi": 462557184}
创建时间: 2018-11-03 17:35:45 大小:441.13 MB 文件数量:1 热度:14 最近下载:2025-06-16 00:35:01
    {"mp4": {"(中文字幕)L"Apollonide (Souvenirs de la maison close).mp4": 464889112}, "1.jpg": 7229}
创建时间: 2018-11-03 17:59:40 大小:443.36 MB 文件数量:2 热度:42 最近下载:2025-09-19 03:18:07
    ... archivo.txt": 13385, "9.Principio de exageración.mp4": 6280932, " ... .mp4": 4180343, "4.Principio de acción continuada.mp4": 7748380 ... , "7.Principio de acción secundaria.mp4": 3912600 ... , "5.Principio de aceleración y deceleración ...
创建时间: 2018-11-03 18:02:04 大小:52.78 MB 文件数量:11 热度:17 最近下载:2025-09-24 03:10:02